Time;durP1;ratioP1;P1;durP2;ratioP2;P2;SDS_P1;SDS_P2;PMS_P1;PMS_P2;Temp;Humidity;BMP_temperature;BMP_pressure;BME280_temperature;BME280_humidity;BME280_pressure;Samples;Min_cycle;Max_cycle;Signal;HPM_P1;HPM_P2
2022/05/19 00:00:17;;;;;;;;;;;24.00;45.40;;;;;;5056763;28;20203;-87
2022/05/19 00:02:43;;;;;;;;;;;24.00;45.20;;;;;;5075464;28;20012;-86
2022/05/19 00:05:08;;;;;;;;;;;23.90;45.40;;;;;;5074224;28;19923;-87
2022/05/19 00:07:34;;;;;;;;;;;23.90;45.70;;;;;;5056746;28;19916;-87
2022/05/19 00:09:59;;;;;;;;;;;23.90;45.70;;;;;;5056762;28;19920;-87
2022/05/19 00:12:25;;;;;;;;;;;23.80;45.60;;;;;;5075505;28;19955;-87
2022/05/19 00:14:50;;;;;;;;;;;23.80;45.50;;;;;;5074660;28;19909;-87
2022/05/19 00:17:16;;;;;;;;;;;23.80;45.60;;;;;;5075082;28;19974;-87
2022/05/19 00:19:42;;;;;;;;;;;23.70;45.90;;;;;;5040725;28;20016;-87
2022/05/19 00:22:07;;;;;;;;;;;23.70;45.90;;;;;;5075111;28;19921;-87
2022/05/19 00:24:33;;;;;;;;;;;23.70;45.90;;;;;;5074534;28;19916;-88
2022/05/19 00:26:59;;;;;;;;;;;23.60;45.80;;;;;;5073616;28;19946;-87
2022/05/19 00:29:25;;;;;;;;;;;23.60;46.00;;;;;;5056010;28;19909;-86
2022/05/19 00:31:50;;;;;;;;;;;23.60;46.10;;;;;;5058390;28;19917;-88
2022/05/19 00:34:16;;;;;;;;;;;23.50;46.20;;;;;;5076806;28;19912;-86
2022/05/19 00:36:42;;;;;;;;;;;23.60;46.20;;;;;;5077031;28;20012;-86
2022/05/19 00:39:10;;;;;;;;;;;23.50;46.50;;;;;;5059408;28;20006;-87
2022/05/19 00:41:45;;;;;;;;;;;23.50;46.70;;;;;;5077770;28;19919;-86
2022/05/19 00:44:11;;;;;;;;;;;23.50;47.00;;;;;;5059082;28;19912;-86
2022/05/19 00:46:49;;;;;;;;;;;23.50;47.20;;;;;;5076712;28;19927;-86
2022/05/19 00:49:16;;;;;;;;;;;23.40;47.00;;;;;;5076756;28;19913;-87
2022/05/19 00:51:46;;;;;;;;;;;23.40;47.10;;;;;;5058566;28;19924;-87
2022/05/19 00:54:14;;;;;;;;;;;23.40;47.00;;;;;;5058232;28;19913;-86
2022/05/19 00:56:42;;;;;;;;;;;23.40;47.00;;;;;;5057899;28;19916;-86
2022/05/19 00:59:10;;;;;;;;;;;23.40;47.40;;;;;;5058412;28;20359;-86
2022/05/19 01:01:37;;;;;;;;;;;23.30;47.60;;;;;;5058910;28;19935;-87
2022/05/19 01:04:06;;;;;;;;;;;23.30;48.00;;;;;;5058294;28;19916;-86
2022/05/19 01:06:33;;;;;;;;;;;23.30;47.90;;;;;;5077267;28;19916;-87
2022/05/19 01:09:00;;;;;;;;;;;23.30;47.90;;;;;;5058708;28;19916;-87
2022/05/19 01:11:26;;;;;;;;;;;23.30;47.80;;;;;;5076852;28;19912;-86
2022/05/19 01:13:51;;;;;;;;;;;23.30;47.70;;;;;;5076343;28;20442;-86
2022/05/19 01:16:17;;;;;;;;;;;23.20;47.80;;;;;;5076467;28;19970;-87
2022/05/19 01:18:44;;;;;;;;;;;23.20;48.00;;;;;;5058306;28;19918;-86
2022/05/19 01:21:11;;;;;;;;;;;23.20;47.80;;;;;;5058380;28;19912;-86
2022/05/19 01:23:47;;;;;;;;;;;23.20;48.10;;;;;;5058081;28;19959;-86
2022/05/19 01:26:25;;;;;;;;;;;23.20;48.00;;;;;;5076413;28;19917;-86
2022/05/19 01:28:51;;;;;;;;;;;23.10;48.10;;;;;;5058026;28;19917;-86
2022/05/19 01:31:27;;;;;;;;;;;23.10;48.20;;;;;;5058357;28;19920;-87
2022/05/19 01:33:52;;;;;;;;;;;23.10;48.30;;;;;;5075693;28;19919;-86
2022/05/19 01:36:18;;;;;;;;;;;23.10;48.20;;;;;;5057619;28;19912;-87
2022/05/19 01:38:43;;;;;;;;;;;23.10;48.20;;;;;;5075498;28;19916;-87
2022/05/19 01:41:21;;;;;;;;;;;23.10;48.20;;;;;;5058093;28;19950;-86
2022/05/19 01:44:04;;;;;;;;;;;23.00;48.40;;;;;;5056836;28;19989;-87
2022/05/19 01:46:35;;;;;;;;;;;23.00;48.50;;;;;;5037645;28;20015;-87
2022/05/19 01:49:03;;;;;;;;;;;23.00;48.40;;;;;;5054324;28;20003;-87
2022/05/19 01:51:40;;;;;;;;;;;23.00;48.40;;;;;;5055363;28;19916;-87
2022/05/19 01:54:32;;;;;;;;;;;22.90;48.40;;;;;;5054945;28;20284;-87
2022/05/19 01:57:00;;;;;;;;;;;22.90;48.40;;;;;;5052898;28;19925;-87
2022/05/19 01:59:33;;;;;;;;;;;22.90;48.30;;;;;;5055804;28;19917;-86
2022/05/19 02:02:18;;;;;;;;;;;22.90;48.40;;;;;;5055499;28;20035;-86
2022/05/19 02:04:56;;;;;;;;;;;22.80;48.60;;;;;;5055190;28;19963;-87
2022/05/19 02:07:22;;;;;;;;;;;22.80;48.80;;;;;;5037648;28;19974;-87
2022/05/19 02:09:55;;;;;;;;;;;22.80;48.80;;;;;;5054314;28;19909;-87
2022/05/19 02:12:21;;;;;;;;;;;22.80;48.60;;;;;;5053812;28;19917;-86
2022/05/19 02:14:59;;;;;;;;;;;22.80;48.80;;;;;;5055205;28;20003;-86
2022/05/19 02:17:25;;;;;;;;;;;22.80;49.00;;;;;;5055562;28;19967;-87
2022/05/19 02:19:53;;;;;;;;;;;22.80;49.00;;;;;;5055196;28;19909;-86
2022/05/19 02:22:20;;;;;;;;;;;22.80;49.10;;;;;;5055173;28;20004;-87
2022/05/19 02:25:01;;;;;;;;;;;22.80;49.10;;;;;;5053614;28;19909;-87
2022/05/19 02:27:38;;;;;;;;;;;22.80;48.90;;;;;;5053829;28;20303;-87
2022/05/19 02:30:09;;;;;;;;;;;22.80;48.90;;;;;;5055753;28;19909;-87
2022/05/19 02:32:35;;;;;;;;;;;22.80;49.00;;;;;;5055342;28;19916;-87
2022/05/19 02:35:01;;;;;;;;;;;22.80;48.90;;;;;;5053946;28;19909;-87
2022/05/19 02:37:26;;;;;;;;;;;22.80;48.80;;;;;;5053980;28;20387;-87
2022/05/19 02:39:52;;;;;;;;;;;22.70;48.80;;;;;;5054265;28;19913;-87
2022/05/19 02:42:17;;;;;;;;;;;22.70;48.80;;;;;;5062981;28;19920;-87
2022/05/19 02:44:43;;;;;;;;;;;22.70;49.00;;;;;;5057164;28;19915;-87
2022/05/19 02:47:08;;;;;;;;;;;22.70;49.00;;;;;;5075223;28;20392;-87
2022/05/19 02:49:34;;;;;;;;;;;22.70;49.00;;;;;;5057166;28;19908;-87
2022/05/19 02:51:59;;;;;;;;;;;22.60;49.20;;;;;;5075241;28;19927;-87
2022/05/19 02:54:25;;;;;;;;;;;22.50;49.20;;;;;;5074883;28;19912;-87
2022/05/19 02:56:50;;;;;;;;;;;22.50;49.20;;;;;;5075099;28;19913;-86
2022/05/19 02:59:16;;;;;;;;;;;22.50;49.40;;;;;;5056677;28;20028;-86
2022/05/19 03:01:41;;;;;;;;;;;22.40;49.40;;;;;;5056080;28;20003;-87
2022/05/19 03:04:08;;;;;;;;;;;22.40;49.30;;;;;;5074805;28;20417;-87
2022/05/19 03:06:34;;;;;;;;;;;22.40;49.30;;;;;;5056560;28;19920;-87
2022/05/19 03:08:59;;;;;;;;;;;22.40;49.50;;;;;;5074750;28;20356;-87
2022/05/19 03:11:24;;;;;;;;;;;22.30;49.40;;;;;;5074983;28;19918;-86
2022/05/19 03:13:50;;;;;;;;;;;22.30;49.80;;;;;;5056662;28;19913;-86
2022/05/19 03:16:15;;;;;;;;;;;22.30;49.80;;;;;;5075045;28;19921;-87
2022/05/19 03:18:41;;;;;;;;;;;22.30;49.80;;;;;;5057063;28;19970;-87
2022/05/19 03:21:06;;;;;;;;;;;22.30;49.80;;;;;;5074339;28;19913;-87
2022/05/19 03:23:32;;;;;;;;;;;22.30;49.90;;;;;;5056814;28;19953;-88
2022/05/19 03:25:57;;;;;;;;;;;22.30;49.90;;;;;;5074969;28;20066;-87
2022/05/19 03:28:23;;;;;;;;;;;22.20;49.80;;;;;;5074727;28;19912;-86
2022/05/19 03:30:48;;;;;;;;;;;22.20;50.00;;;;;;5074369;28;20113;-87
2022/05/19 03:33:14;;;;;;;;;;;22.10;50.10;;;;;;5056325;28;19916;-87
2022/05/19 03:35:40;;;;;;;;;;;22.20;50.00;;;;;;5074585;28;20018;-87
2022/05/19 03:38:06;;;;;;;;;;;22.10;50.30;;;;;;5056449;28;19916;-87
2022/05/19 03:40:31;;;;;;;;;;;22.10;50.30;;;;;;5074099;28;20003;-87
2022/05/19 03:42:57;;;;;;;;;;;22.10;50.30;;;;;;5056150;28;20295;-87
2022/05/19 03:45:23;;;;;;;;;;;22.10;50.40;;;;;;5056150;28;19917;-87
2022/05/19 03:47:48;;;;;;;;;;;22.10;50.70;;;;;;5074055;28;19920;-87
2022/05/19 03:50:14;;;;;;;;;;;22.10;50.90;;;;;;5073644;28;19923;-87
2022/05/19 03:52:40;;;;;;;;;;;22.10;50.70;;;;;;5074484;28;19961;-87
2022/05/19 03:55:06;;;;;;;;;;;22.10;50.90;;;;;;5074414;28;19919;-87
2022/05/19 03:57:32;;;;;;;;;;;22.10;50.90;;;;;;5056008;28;19974;-87
2022/05/19 03:59:57;;;;;;;;;;;22.20;50.70;;;;;;5073896;28;19916;-86
2022/05/19 04:02:22;;;;;;;;;;;22.20;50.60;;;;;;5055595;28;20353;-87
2022/05/19 04:04:48;;;;;;;;;;;22.20;50.80;;;;;;5074587;28;20015;-87
2022/05/19 04:07:14;;;;;;;;;;;22.20;50.80;;;;;;5055899;28;19920;-87
2022/05/19 04:09:39;;;;;;;;;;;22.30;50.70;;;;;;5073601;28;20386;-87
2022/05/19 04:12:06;;;;;;;;;;;22.30;50.70;;;;;;5056052;28;20011;-87
2022/05/19 04:14:31;;;;;;;;;;;22.30;50.60;;;;;;5056137;28;19913;-87
2022/05/19 04:16:57;;;;;;;;;;;22.30;50.50;;;;;;5073702;28;19970;-86
2022/05/19 04:19:22;;;;;;;;;;;22.40;50.50;;;;;;5073828;28;20034;-87
2022/05/19 04:21:48;;;;;;;;;;;22.50;50.50;;;;;;5074067;28;20049;-87
2022/05/19 04:24:13;;;;;;;;;;;22.60;50.50;;;;;;5074453;28;20359;-87
2022/05/19 04:26:38;;;;;;;;;;;22.70;50.50;;;;;;5073253;28;19920;-87
2022/05/19 04:29:04;;;;;;;;;;;22.70;50.70;;;;;;5073931;28;19962;-86
2022/05/19 04:31:30;;;;;;;;;;;22.90;50.80;;;;;;5062444;28;19985;-87
2022/05/19 04:33:55;;;;;;;;;;;23.00;50.80;;;;;;5054342;28;19923;-87
2022/05/19 04:36:20;;;;;;;;;;;23.10;50.60;;;;;;5036279;28;19916;-88
2022/05/19 04:38:46;;;;;;;;;;;23.20;50.50;;;;;;5053615;28;19913;-87
2022/05/19 04:41:11;;;;;;;;;;;23.40;50.40;;;;;;5036435;28;19913;-87
2022/05/19 04:43:37;;;;;;;;;;;23.50;50.30;;;;;;5053978;28;19924;-87
2022/05/19 04:46:03;;;;;;;;;;;23.70;50.20;;;;;;5052902;28;19987;-88
2022/05/19 04:48:28;;;;;;;;;;;23.80;50.10;;;;;;5063490;28;19920;-88
2022/05/19 04:50:55;;;;;;;;;;;24.00;50.00;;;;;;5056130;28;20371;-87
2022/05/19 04:53:21;;;;;;;;;;;24.10;49.80;;;;;;5073677;28;19916;-87
2022/05/19 04:55:46;;;;;;;;;;;24.30;49.70;;;;;;5073670;28;19915;-87
2022/05/19 04:58:12;;;;;;;;;;;24.50;49.50;;;;;;5043891;28;19962;-88
2022/05/19 05:00:38;;;;;;;;;;;24.80;49.30;;;;;;5056637;28;19916;-87
2022/05/19 05:03:04;;;;;;;;;;;25.00;49.00;;;;;;5066810;28;20070;-87
2022/05/19 05:05:30;;;;;;;;;;;25.20;48.80;;;;;;5080391;28;19924;-87
2022/05/19 05:07:55;;;;;;;;;;;25.30;48.60;;;;;;5074857;28;19916;-87
2022/05/19 05:10:21;;;;;;;;;;;25.60;48.30;;;;;;5093664;28;20261;-87
2022/05/19 05:12:46;;;;;;;;;;;25.80;47.90;;;;;;5093498;28;19908;-87
2022/05/19 05:15:12;;;;;;;;;;;25.90;47.70;;;;;;5093554;28;20310;-87
2022/05/19 05:17:37;;;;;;;;;;;26.10;47.60;;;;;;5068955;28;19916;-87
2022/05/19 05:20:04;;;;;;;;;;;26.30;47.60;;;;;;5058569;28;19923;-87
2022/05/19 05:22:34;;;;;;;;;;;26.70;47.50;;;;;;5076786;28;19908;-87
2022/05/19 05:25:00;;;;;;;;;;;26.90;47.10;;;;;;5077343;28;19920;-88
2022/05/19 05:27:26;;;;;;;;;;;27.20;46.80;;;;;;5076075;28;19916;-86
2022/05/19 05:29:51;;;;;;;;;;;27.60;46.50;;;;;;5058439;28;20403;-86
2022/05/19 05:32:17;;;;;;;;;;;27.90;46.10;;;;;;5076308;28;19916;-87
2022/05/19 05:34:42;;;;;;;;;;;28.20;45.40;;;;;;5076671;28;20338;-87
2022/05/19 05:37:08;;;;;;;;;;;28.60;45.00;;;;;;5076181;28;19913;-87
2022/05/19 05:39:33;;;;;;;;;;;29.00;45.00;;;;;;5076551;28;19975;-85
2022/05/19 05:41:59;;;;;;;;;;;29.50;44.60;;;;;;5057944;28;19962;-85
2022/05/19 05:44:24;;;;;;;;;;;30.00;43.40;;;;;;5057874;28;19919;-86
2022/05/19 05:46:50;;;;;;;;;;;30.40;42.70;;;;;;5075831;28;19967;-86
2022/05/19 05:49:15;;;;;;;;;;;30.80;42.00;;;;;;5057720;28;19919;-86
2022/05/19 05:51:41;;;;;;;;;;;31.30;41.80;;;;;;5056394;28;19919;-86
2022/05/19 05:54:06;;;;;;;;;;;32.00;40.10;;;;;;5051048;28;19958;-86
2022/05/19 05:56:32;;;;;;;;;;;32.60;38.20;;;;;;5078116;28;19908;-86
2022/05/19 05:58:57;;;;;;;;;;;33.20;36.30;;;;;;5095784;28;19999;-86
2022/05/19 06:01:23;;;;;;;;;;;33.70;34.90;;;;;;5096177;28;19912;-86
2022/05/19 06:03:50;;;;;;;;;;;34.00;33.70;;;;;;5066515;28;19916;-86
2022/05/19 06:06:15;;;;;;;;;;;34.40;32.30;;;;;;5077556;28;19920;-86
2022/05/19 06:08:41;;;;;;;;;;;34.70;31.80;;;;;;5078254;28;19917;-86
2022/05/19 06:11:07;;;;;;;;;;;34.90;31.00;;;;;;5060759;28;20360;-86
2022/05/19 06:13:33;;;;;;;;;;;35.10;30.40;;;;;;5078244;28;19916;-87
2022/05/19 06:15:59;;;;;;;;;;;35.30;29.50;;;;;;5077116;28;19935;-86
2022/05/19 06:18:25;;;;;;;;;;;35.40;28.40;;;;;;5077432;28;19916;-87
2022/05/19 06:20:51;;;;;;;;;;;35.50;28.60;;;;;;5076996;28;19981;-86
2022/05/19 06:23:18;;;;;;;;;;;35.60;28.50;;;;;;5060021;28;19925;-86
2022/05/19 06:25:43;;;;;;;;;;;35.70;28.20;;;;;;5070892;28;20292;-86
2022/05/19 06:28:09;;;;;;;;;;;35.80;28.00;;;;;;5070945;28;19917;-86
2022/05/19 06:30:34;;;;;;;;;;;35.80;27.50;;;;;;5056988;28;20281;-86
2022/05/19 06:33:00;;;;;;;;;;;36.00;26.90;;;;;;5059184;28;19926;-86
2022/05/19 06:35:28;;;;;;;;;;;36.10;26.40;;;;;;5077974;28;19916;-86
2022/05/19 06:37:56;;;;;;;;;;;36.10;26.30;;;;;;5066153;28;20329;-85
2022/05/19 06:40:24;;;;;;;;;;;36.20;25.90;;;;;;5056427;28;19952;-86
2022/05/19 06:42:49;;;;;;;;;;;36.20;25.90;;;;;;5047347;28;19935;-86
2022/05/19 06:45:17;;;;;;;;;;;36.30;26.00;;;;;;5055916;28;19925;-86
2022/05/19 06:47:42;;;;;;;;;;;36.30;25.60;;;;;;5055132;28;20298;-86
2022/05/19 06:50:08;;;;;;;;;;;36.40;25.60;;;;;;5052026;28;19921;-86
2022/05/19 06:52:40;;;;;;;;;;;36.50;25.30;;;;;;5067416;28;19912;-85
2022/05/19 06:55:06;;;;;;;;;;;36.60;25.20;;;;;;5062494;28;19966;-86
2022/05/19 06:57:31;;;;;;;;;;;36.70;24.60;;;;;;5062573;28;20354;-86
2022/05/19 06:59:57;;;;;;;;;;;36.60;24.50;;;;;;5086598;28;19916;-85
2022/05/19 07:02:24;;;;;;;;;;;36.60;24.30;;;;;;5064868;28;19975;-86
2022/05/19 07:04:49;;;;;;;;;;;36.70;24.50;;;;;;5079431;28;19995;-85
2022/05/19 07:07:15;;;;;;;;;;;36.70;24.10;;;;;;5078014;28;20406;-86
2022/05/19 07:09:40;;;;;;;;;;;36.70;24.30;;;;;;5065069;28;20418;-86
2022/05/19 07:12:07;;;;;;;;;;;36.60;23.90;;;;;;5046956;28;19944;-85
2022/05/19 07:14:33;;;;;;;;;;;36.50;24.20;;;;;;5062082;28;19917;-86
2022/05/19 07:16:58;;;;;;;;;;;36.50;23.90;;;;;;5060312;28;19923;-86
2022/05/19 07:22:13;;;;;;;;;;;36.40;23.80;;;;;;5078860;28;19927;-86
2022/05/19 07:24:39;;;;;;;;;;;36.30;23.90;;;;;;5067695;28;20055;-86
2022/05/19 07:27:04;;;;;;;;;;;36.30;23.90;;;;;;5070363;28;20010;-86
2022/05/19 07:29:30;;;;;;;;;;;36.50;24.20;;;;;;5050364;28;19918;-87
2022/05/19 07:32:01;;;;;;;;;;;36.70;23.70;;;;;;5071432;28;19917;-87
2022/05/19 07:34:28;;;;;;;;;;;36.90;23.30;;;;;;5061789;28;20032;-87
2022/05/19 07:36:53;;;;;;;;;;;37.30;23.30;;;;;;5056888;28;19916;-87
2022/05/19 07:39:19;;;;;;;;;;;37.80;22.50;;;;;;5058079;28;19923;-86
2022/05/19 07:41:44;;;;;;;;;;;38.00;22.00;;;;;;5058563;28;20364;-87
2022/05/19 07:44:11;;;;;;;;;;;38.20;22.10;;;;;;5066064;28;20375;-87
2022/05/19 07:46:36;;;;;;;;;;;38.60;21.70;;;;;;5064947;28;19913;-87
2022/05/19 07:49:02;;;;;;;;;;;39.20;21.60;;;;;;5069787;28;19921;-87
2022/05/19 07:51:31;;;;;;;;;;;40.00;21.80;;;;;;5078256;28;20376;-88
2022/05/19 07:53:57;;;;;;;;;;;40.80;21.40;;;;;;5073376;28;19920;-87
2022/05/19 07:56:22;;;;;;;;;;;41.40;20.40;;;;;;5068548;28;19924;-87
2022/05/19 07:58:48;;;;;;;;;;;41.60;19.40;;;;;;5079040;28;20005;-87
2022/05/19 08:01:14;;;;;;;;;;;41.60;19.30;;;;;;5070178;28;19922;-88
2022/05/19 08:03:39;;;;;;;;;;;41.80;19.10;;;;;;5061389;28;19917;-88
2022/05/19 08:06:07;;;;;;;;;;;42.00;19.10;;;;;;5060068;28;19999;-87
2022/05/19 08:08:33;;;;;;;;;;;42.60;19.20;;;;;;5072783;28;20006;-89
2022/05/19 08:10:59;;;;;;;;;;;43.20;18.70;;;;;;5063741;28;19921;-88
2022/05/19 08:16:08;;;;;;;;;;;43.70;17.90;;;;;;5072312;28;19943;-87
2022/05/19 08:18:34;;;;;;;;;;;43.70;18.20;;;;;;5058837;28;19920;-86
2022/05/19 08:21:00;;;;;;;;;;;43.60;17.50;;;;;;5068370;28;19913;-88
2022/05/19 08:23:30;;;;;;;;;;;43.30;17.20;;;;;;5054957;28;19924;-87
2022/05/19 08:25:56;;;;;;;;;;;43.10;17.10;;;;;;5050259;28;19933;-87
2022/05/19 08:28:28;;;;;;;;;;;42.80;17.10;;;;;;5052238;28;19925;-87
2022/05/19 08:30:55;;;;;;;;;;;42.70;17.20;;;;;;5070191;28;19917;-87
2022/05/19 08:33:21;;;;;;;;;;;42.70;17.50;;;;;;5056334;28;19916;-87
2022/05/19 08:35:47;;;;;;;;;;;42.80;17.90;;;;;;5060281;28;19918;-87
2022/05/19 08:38:12;;;;;;;;;;;43.00;17.50;;;;;;5045662;28;20234;-87
2022/05/19 08:40:43;;;;;;;;;;;42.80;17.30;;;;;;5079686;28;20025;-87
2022/05/19 08:43:10;;;;;;;;;;;42.50;16.90;;;;;;5062335;28;19919;-87
2022/05/19 08:45:39;;;;;;;;;;;42.20;17.20;;;;;;5060677;28;19924;-86
2022/05/19 08:48:06;;;;;;;;;;;42.00;17.50;;;;;;5068183;28;19912;-87
2022/05/19 08:50:39;;;;;;;;;;;41.80;17.60;;;;;;5066702;28;19970;-87
2022/05/19 08:53:06;;;;;;;;;;;41.60;17.80;;;;;;5071216;28;19921;-87
2022/05/19 08:55:32;;;;;;;;;;;41.50;18.10;;;;;;5079651;28;19924;-86
2022/05/19 08:58:01;;;;;;;;;;;41.40;18.30;;;;;;5075765;28;19916;-87
2022/05/19 09:00:50;;;;;;;;;;;41.40;18.20;;;;;;5067494;28;19986;-87
2022/05/19 09:03:19;;;;;;;;;;;41.30;18.10;;;;;;5075167;28;20058;-87
2022/05/19 09:06:00;;;;;;;;;;;41.10;18.30;;;;;;5059201;28;20011;-87
2022/05/19 09:08:41;;;;;;;;;;;40.80;18.30;;;;;;5075078;28;19920;-87
2022/05/19 09:11:10;;;;;;;;;;;40.60;18.50;;;;;;5071765;28;20078;-86
2022/05/19 09:13:37;;;;;;;;;;;40.60;19.00;;;;;;5050987;28;20305;-87
2022/05/19 09:16:13;;;;;;;;;;;40.70;18.80;;;;;;5079314;28;19958;-87
2022/05/19 09:18:41;;;;;;;;;;;40.70;18.80;;;;;;5062545;28;19920;-88
2022/05/19 09:21:07;;;;;;;;;;;40.80;18.90;;;;;;5070054;28;19917;-87
2022/05/19 09:23:35;;;;;;;;;;;41.10;19.00;;;;;;5057839;28;19956;-87
2022/05/19 09:26:03;;;;;;;;;;;41.20;18.70;;;;;;5057625;28;20391;-87
2022/05/19 09:28:29;;;;;;;;;;;41.30;18.50;;;;;;5073548;28;19978;-87
2022/05/19 09:30:55;;;;;;;;;;;41.40;18.30;;;;;;5056148;28;19924;-87
2022/05/19 09:33:33;;;;;;;;;;;41.40;18.30;;;;;;5063230;28;19947;-87
2022/05/19 09:36:00;;;;;;;;;;;41.40;18.30;;;;;;5079663;28;19928;-87
2022/05/19 09:38:25;;;;;;;;;;;41.20;18.20;;;;;;5067311;28;19923;-87
2022/05/19 09:40:54;;;;;;;;;;;41.10;18.30;;;;;;5062934;28;20268;-86
2022/05/19 09:43:21;;;;;;;;;;;41.10;18.60;;;;;;5069442;28;19927;-87
2022/05/19 09:45:46;;;;;;;;;;;41.30;18.70;;;;;;5065752;28;19917;-87
2022/05/19 09:48:12;;;;;;;;;;;41.40;18.60;;;;;;5065505;28;19924;-87
2022/05/19 09:50:48;;;;;;;;;;;41.80;18.50;;;;;;5064547;28;19966;-87
2022/05/19 09:53:25;;;;;;;;;;;42.20;18.20;;;;;;5070303;28;19947;-88
2022/05/19 09:56:01;;;;;;;;;;;42.70;17.90;;;;;;5056699;28;19991;-87
2022/05/19 09:58:30;;;;;;;;;;;43.20;17.50;;;;;;5053172;28;19920;-88
2022/05/19 10:00:59;;;;;;;;;;;43.80;17.20;;;;;;5067703;28;19916;-87
2022/05/19 10:03:29;;;;;;;;;;;44.30;16.70;;;;;;5058174;28;19953;-86
2022/05/19 10:05:56;;;;;;;;;;;44.70;16.40;;;;;;5059098;28;20274;-86
2022/05/19 10:08:26;;;;;;;;;;;45.00;16.00;;;;;;5081173;28;21213;-86
2022/05/19 10:10:59;;;;;;;;;;;45.10;15.80;;;;;;5071790;28;19920;-86
2022/05/19 10:13:32;;;;;;;;;;;45.00;15.80;;;;;;5075064;28;19953;-86
2022/05/19 10:16:11;;;;;;;;;;;44.80;15.90;;;;;;5057349;28;20348;-85
2022/05/19 10:18:46;;;;;;;;;;;44.70;16.10;;;;;;5079534;28;20309;-86
2022/05/19 10:21:30;;;;;;;;;;;44.70;16.20;;;;;;5074655;28;20356;-87
2022/05/19 10:24:10;;;;;;;;;;;44.80;16.10;;;;;;5059888;28;19959;-87
2022/05/19 10:26:39;;;;;;;;;;;44.80;16.10;;;;;;5084498;28;19987;-87
2022/05/19 10:31:57;;;;;;;;;;;45.20;16.10;;;;;;5068944;28;19923;-87
2022/05/19 10:34:36;;;;;;;;;;;45.80;16.20;;;;;;5052215;28;20641;-88
2022/05/19 10:37:07;;;;;;;;;;;46.20;15.50;;;;;;5066708;28;19916;-88
2022/05/19 10:39:50;;;;;;;;;;;46.10;15.30;;;;;;5069855;28;19927;-87
2022/05/19 10:42:27;;;;;;;;;;;46.00;15.50;;;;;;5061603;28;19912;-87
2022/05/19 10:45:07;;;;;;;;;;;46.00;15.40;;;;;;5068483;28;19920;-89
2022/05/19 10:47:52;;;;;;;;;;;45.70;15.40;;;;;;5076826;28;20032;-87
2022/05/19 10:50:24;;;;;;;;;;;45.40;15.40;;;;;;5068234;28;20298;-88
2022/05/19 10:52:55;;;;;;;;;;;45.30;15.90;;;;;;5073821;28;20347;-89
2022/05/19 10:55:31;;;;;;;;;;;45.40;15.70;;;;;;5060140;28;19916;-88
2022/05/19 10:58:06;;;;;;;;;;;45.50;15.80;;;;;;5073844;28;20285;-88
2022/05/19 11:00:46;;;;;;;;;;;45.70;15.90;;;;;;5076724;28;20441;-87
2022/05/19 11:03:31;;;;;;;;;;;46.30;15.80;;;;;;5076158;28;19912;-90
2022/05/19 11:06:21;;;;;;;;;;;46.80;15.50;;;;;;5074985;28;19904;-88
2022/05/19 11:08:52;;;;;;;;;;;46.80;14.90;;;;;;5071236;28;19932;-89
2022/05/19 11:11:22;;;;;;;;;;;46.90;14.90;;;;;;5074853;28;20362;-88
2022/05/19 11:13:48;;;;;;;;;;;47.10;14.60;;;;;;5074905;28;19971;-87
2022/05/19 11:16:22;;;;;;;;;;;47.00;14.70;;;;;;5069409;28;19972;-88
2022/05/19 11:18:51;;;;;;;;;;;47.20;14.70;;;;;;5060510;28;19956;-89
2022/05/19 11:21:35;;;;;;;;;;;47.40;14.60;;;;;;5055550;28;20418;-88
2022/05/19 11:24:03;;;;;;;;;;;47.50;14.40;;;;;;5049961;28;19951;-88
2022/05/19 11:26:38;;;;;;;;;;;47.40;14.40;;;;;;5065466;28;19920;-88
2022/05/19 11:29:22;;;;;;;;;;;47.60;14.30;;;;;;5070015;28;19944;-88
2022/05/19 11:32:04;;;;;;;;;;;47.50;14.30;;;;;;5065344;28;19927;-88
2022/05/19 11:34:35;;;;;;;;;;;47.30;14.20;;;;;;5062019;28;19920;-88
2022/05/19 11:37:05;;;;;;;;;;;47.30;14.20;;;;;;5059039;28;19912;-88
2022/05/19 11:39:36;;;;;;;;;;;47.30;14.00;;;;;;5073925;28;19916;-88
2022/05/19 11:42:19;;;;;;;;;;;47.20;13.90;;;;;;5075841;28;19968;-88
2022/05/19 11:44:46;;;;;;;;;;;47.20;14.00;;;;;;5065107;28;19927;-88
2022/05/19 11:55:56;;;;;;;;;;;47.10;14.10;;;;;;5070005;28;20313;-87
2022/05/19 11:58:28;;;;;;;;;;;47.30;14.00;;;;;;5063540;28;19920;-87
2022/05/19 12:01:02;;;;;;;;;;;47.40;14.10;;;;;;5076761;28;20003;-87
2022/05/19 12:03:31;;;;;;;;;;;47.50;13.90;;;;;;5043041;28;19924;-87
2022/05/19 12:06:17;;;;;;;;;;;47.50;13.70;;;;;;5057823;28;19956;-88
2022/05/19 12:09:06;;;;;;;;;;;47.50;13.60;;;;;;5067204;28;19916;-87
2022/05/19 12:11:45;;;;;;;;;;;47.50;13.80;;;;;;5061806;28;19924;-87
2022/05/19 12:14:10;;;;;;;;;;;47.30;13.60;;;;;;5057561;28;20012;-88
2022/05/19 12:16:44;;;;;;;;;;;47.30;13.90;;;;;;5049190;28;19928;-87
2022/05/19 12:19:28;;;;;;;;;;;47.30;13.60;;;;;;5080112;28;19920;-87
2022/05/19 12:21:53;;;;;;;;;;;46.90;13.90;;;;;;5064340;28;19913;-87
2022/05/19 12:24:21;;;;;;;;;;;46.70;14.00;;;;;;5073234;28;20367;-87
2022/05/19 12:27:07;;;;;;;;;;;46.40;13.80;;;;;;5075566;28;20330;-87
2022/05/19 12:29:33;;;;;;;;;;;46.30;13.90;;;;;;5067041;28;19986;-87
2022/05/19 12:32:07;;;;;;;;;;;46.30;14.10;;;;;;5074286;28;19917;-87
2022/05/19 12:34:37;;;;;;;;;;;46.40;14.20;;;;;;5061557;28;19920;-86
2022/05/19 12:37:06;;;;;;;;;;;46.30;14.10;;;;;;5054750;28;19913;-87
2022/05/19 12:39:42;;;;;;;;;;;46.10;14.20;;;;;;5061292;28;19931;-86
2022/05/19 12:42:34;;;;;;;;;;;46.00;14.20;;;;;;5069049;28;19927;-87
2022/05/19 12:45:12;;;;;;;;;;;45.80;14.30;;;;;;5086291;28;19916;-87
2022/05/19 12:47:54;;;;;;;;;;;45.80;14.50;;;;;;5050031;28;19924;-87
2022/05/19 12:50:21;;;;;;;;;;;45.80;14.50;;;;;;5080567;28;19994;-86
2022/05/19 12:52:46;;;;;;;;;;;45.70;14.70;;;;;;5068851;28;20057;-86
2022/05/19 12:55:24;;;;;;;;;;;45.50;14.40;;;;;;5068616;28;20003;-86
2022/05/19 12:57:51;;;;;;;;;;;45.30;14.50;;;;;;5049154;28;20459;-87
2022/05/19 13:00:19;;;;;;;;;;;45.30;14.70;;;;;;5072624;28;19931;-87
2022/05/19 13:02:55;;;;;;;;;;;45.40;14.60;;;;;;5063990;28;19924;-87
2022/05/19 13:05:24;;;;;;;;;;;45.40;14.60;;;;;;5072263;28;19921;-87
2022/05/19 13:07:59;;;;;;;;;;;45.50;14.50;;;;;;5066976;28;19970;-87
2022/05/19 13:10:34;;;;;;;;;;;45.30;14.40;;;;;;5069872;28;19939;-87
2022/05/19 13:13:02;;;;;;;;;;;45.20;14.70;;;;;;5047558;28;19920;-87
2022/05/19 13:15:28;;;;;;;;;;;45.10;14.70;;;;;;5069611;28;20026;-86
2022/05/19 13:17:55;;;;;;;;;;;45.00;14.80;;;;;;5073129;28;19972;-87
2022/05/19 13:20:23;;;;;;;;;;;44.90;15.00;;;;;;5074883;28;19920;-87
2022/05/19 13:22:51;;;;;;;;;;;45.00;15.30;;;;;;5068720;28;20344;-88
2022/05/19 13:25:17;;;;;;;;;;;45.00;15.20;;;;;;5066348;28;19924;-86
2022/05/19 13:30:31;;;;;;;;;;;44.80;15.20;;;;;;5072881;28;19963;-86
2022/05/19 13:33:07;;;;;;;;;;;44.10;15.40;;;;;;5064812;28;19932;-87
2022/05/19 13:35:33;;;;;;;;;;;43.40;15.90;;;;;;5061541;28;19924;-87
2022/05/19 13:38:00;;;;;;;;;;;43.10;16.40;;;;;;5069796;28;19908;-87
2022/05/19 13:40:37;;;;;;;;;;;43.10;16.60;;;;;;5066995;28;19920;-85
2022/05/19 13:43:07;;;;;;;;;;;43.10;16.50;;;;;;5069793;28;19924;-86
2022/05/19 13:45:35;;;;;;;;;;;43.20;16.60;;;;;;5062260;28;19974;-86
2022/05/19 13:48:01;;;;;;;;;;;43.00;16.60;;;;;;5070485;28;20299;-86
2022/05/19 13:50:28;;;;;;;;;;;42.90;16.80;;;;;;5067924;28;19920;-88
2022/05/19 13:52:58;;;;;;;;;;;43.00;17.00;;;;;;5068986;28;19951;-87
2022/05/19 13:55:28;;;;;;;;;;;42.80;17.00;;;;;;5076981;28;19953;-84
2022/05/19 13:57:54;;;;;;;;;;;42.40;17.40;;;;;;5068888;28;19924;-85
2022/05/19 14:00:19;;;;;;;;;;;41.90;17.80;;;;;;5078141;28;19931;-85
2022/05/19 14:02:45;;;;;;;;;;;41.50;18.20;;;;;;5063159;28;19931;-87
2022/05/19 14:05:27;;;;;;;;;;;41.20;18.50;;;;;;5067509;28;19939;-86
2022/05/19 14:07:54;;;;;;;;;;;40.80;18.80;;;;;;5046269;28;19932;-86
2022/05/19 14:10:22;;;;;;;;;;;40.40;19.20;;;;;;5074358;28;19945;-86
2022/05/19 14:12:52;;;;;;;;;;;40.10;19.70;;;;;;5046734;28;20643;-87
2022/05/19 14:15:31;;;;;;;;;;;39.70;20.00;;;;;;5072896;28;19925;-87
2022/05/19 14:17:59;;;;;;;;;;;39.40;20.30;;;;;;5071005;28;20375;-86
2022/05/19 14:20:24;;;;;;;;;;;39.30;20.50;;;;;;5069472;28;20011;-87
2022/05/19 14:22:51;;;;;;;;;;;39.20;20.70;;;;;;5061205;28;19996;-86
2022/05/19 14:25:17;;;;;;;;;;;39.00;20.90;;;;;;5065487;28;19927;-85
2022/05/19 14:27:44;;;;;;;;;;;38.80;21.00;;;;;;5081388;28;19916;-87
2022/05/19 14:30:14;;;;;;;;;;;38.70;21.20;;;;;;5064813;28;19916;-86
2022/05/19 14:32:47;;;;;;;;;;;38.50;21.40;;;;;;5077841;28;19920;-85
2022/05/19 14:35:23;;;;;;;;;;;38.40;21.70;;;;;;5056771;28;19912;-85
2022/05/19 14:37:53;;;;;;;;;;;38.30;22.20;;;;;;5075598;28;20387;-85
2022/05/19 14:43:11;;;;;;;;;;;36.60;23.80;;;;;;5068140;28;19947;-84
2022/05/19 14:45:41;;;;;;;;;;;35.50;24.80;;;;;;5057327;28;19928;-84
2022/05/19 14:48:14;;;;;;;;;;;34.40;31.70;;;;;;5062591;28;19938;-84